createdAt,value
2023-03-21T00:00:44.804Z,25.35
2023-03-21T00:03:12.921Z,26.73
2023-03-21T00:05:42.382Z,26.20
2023-03-21T00:08:10.582Z,25.13
2023-03-21T00:10:43.641Z,26.65
2023-03-21T00:13:13.287Z,20.50
2023-03-21T00:16:04.692Z,22.70
2023-03-21T00:18:42.503Z,24.98
2023-03-21T00:24:08.566Z,29.15
2023-03-21T00:26:38.236Z,30.15
2023-03-21T00:29:06.977Z,22.73
2023-03-21T00:31:36.466Z,30.67
2023-03-21T00:34:04.505Z,18.17
2023-03-21T00:36:33.260Z,30.50
2023-03-21T00:39:01.964Z,29.65
2023-03-21T00:41:45.106Z,21.45
2023-03-21T00:44:15.859Z,23.50
2023-03-21T00:47:00.492Z,25.60
2023-03-21T00:49:34.303Z,18.38
2023-03-21T00:52:15.296Z,26.97
2023-03-21T00:54:46.234Z,24.85
2023-03-21T00:57:14.384Z,24.27
2023-03-21T00:59:42.453Z,23.88
2023-03-21T01:02:15.012Z,25.77
2023-03-21T01:04:44.155Z,25.90
2023-03-21T01:07:12.407Z,21.73
2023-03-21T01:09:40.471Z,23.15
2023-03-21T01:12:08.393Z,28.63
2023-03-21T01:14:36.411Z,30.17
2023-03-21T01:17:04.852Z,27.03
2023-03-21T01:19:48.659Z,26.95
2023-03-21T01:22:19.473Z,24.77
2023-03-21T01:24:55.444Z,29.63
2023-03-21T01:27:28.413Z,25.10
2023-03-21T01:29:56.448Z,25.80
2023-03-21T01:32:24.167Z,25.95
2023-03-21T01:34:55.985Z,23.58
2023-03-21T01:37:26.319Z,28.15
2023-03-21T01:39:54.062Z,28.43
2023-03-21T01:42:21.813Z,30.27
2023-03-21T01:44:58.525Z,26.03
2023-03-21T01:47:26.404Z,28.75
2023-03-21T01:49:56.931Z,30.80
2023-03-21T01:52:36.525Z,21.75
2023-03-21T01:55:08.340Z,26.13
2023-03-21T01:57:45.356Z,28.95
2023-03-21T02:00:21.750Z,25.87
2023-03-21T02:02:58.275Z,27.17
2023-03-21T02:05:37.600Z,30.77
2023-03-21T02:08:06.114Z,34.03
2023-03-21T02:10:33.943Z,27.15
2023-03-21T02:13:09.397Z,26.25
2023-03-21T02:15:38.591Z,22.10
2023-03-21T02:18:11.536Z,30.00
2023-03-21T02:20:57.490Z,28.45
2023-03-21T02:23:39.650Z,26.80
2023-03-21T02:26:41.996Z,35.95
2023-03-21T02:29:24.308Z,28.02
2023-03-21T02:31:57.152Z,24.77
2023-03-21T02:34:46.775Z,34.42
2023-03-21T02:37:28.891Z,29.20
2023-03-21T02:40:11.889Z,24.13
2023-03-21T02:42:59.382Z,22.85
2023-03-21T02:45:30.425Z,26.30
2023-03-21T02:48:01.388Z,26.58
2023-03-21T02:50:33.976Z,27.58
2023-03-21T02:53:05.059Z,26.13
2023-03-21T02:55:34.413Z,22.88
2023-03-21T02:58:12.829Z,28.75
2023-03-21T03:00:42.954Z,28.35
2023-03-21T03:03:16.044Z,31.25
2023-03-21T03:05:50.968Z,33.42
2023-03-21T03:08:41.254Z,28.73
2023-03-21T03:11:24.789Z,35.15
2023-03-21T03:14:15.857Z,27.85
2023-03-21T03:16:55.923Z,28.50
2023-03-21T03:19:31.179Z,28.63
2023-03-21T03:22:03.434Z,30.77
2023-03-21T03:24:35.606Z,35.53
2023-03-21T03:27:08.246Z,34.55
2023-03-21T03:29:39.440Z,35.45
2023-03-21T03:32:30.799Z,40.35
2023-03-21T03:35:00.696Z,29.45
2023-03-21T03:37:31.796Z,40.00
2023-03-21T03:40:07.452Z,37.13
2023-03-21T03:42:37.375Z,31.70
2023-03-21T03:45:06.199Z,36.60
2023-03-21T03:47:42.042Z,31.70
2023-03-21T03:50:23.828Z,33.08
2023-03-21T03:52:58.767Z,32.35
2023-03-21T03:55:34.775Z,34.20
2023-03-21T03:58:04.731Z,33.10
2023-03-21T04:00:34.891Z,34.28
2023-03-21T04:03:03.767Z,36.03
2023-03-21T04:05:33.289Z,34.17
2023-03-21T04:08:01.177Z,33.00
2023-03-21T04:10:30.679Z,34.72
2023-03-21T04:12:58.933Z,32.45
2023-03-21T04:15:26.972Z,35.72
2023-03-21T04:17:54.709Z,31.00
2023-03-21T04:20:35.632Z,28.20
2023-03-21T04:23:05.237Z,32.65
2023-03-21T04:25:42.272Z,35.40
2023-03-21T04:28:15.824Z,40.15
2023-03-21T04:30:58.606Z,35.15
2023-03-21T04:33:28.575Z,35.95
2023-03-21T04:35:56.797Z,43.42
2023-03-21T04:38:26.447Z,38.85
2023-03-21T04:40:56.159Z,32.20
2023-03-21T04:43:24.496Z,38.17
2023-03-21T04:45:52.380Z,41.83
2023-03-21T04:48:20.856Z,36.65
2023-03-21T04:50:48.952Z,38.22
2023-03-21T04:53:16.977Z,44.78
2023-03-21T04:55:45.395Z,36.83
2023-03-21T04:58:14.653Z,38.70
2023-03-21T05:00:42.446Z,47.63
2023-03-21T05:03:10.755Z,45.53
2023-03-21T05:05:39.642Z,45.03
2023-03-21T05:08:07.770Z,42.80
2023-03-21T05:10:35.820Z,40.63
2023-03-21T05:13:03.535Z,41.90
2023-03-21T05:15:32.848Z,39.05
2023-03-21T05:18:11.548Z,46.42
2023-03-21T05:20:42.739Z,44.95
2023-03-21T05:23:11.965Z,39.33
2023-03-21T05:25:40.430Z,39.20
2023-03-21T05:28:08.954Z,37.80
2023-03-21T05:30:38.083Z,43.08
2023-03-21T05:33:06.109Z,39.03
2023-03-21T05:35:34.185Z,41.37
2023-03-21T05:38:03.386Z,39.93
2023-03-21T05:40:31.481Z,38.50
2023-03-21T05:42:59.514Z,37.60
2023-03-21T05:45:27.522Z,36.25
2023-03-21T05:47:56.814Z,40.35
2023-03-21T05:50:25.057Z,36.20
2023-03-21T05:52:52.818Z,34.53
2023-03-21T05:55:21.388Z,38.43
2023-03-21T05:57:49.407Z,37.20
2023-03-21T06:00:21.888Z,39.70
2023-03-21T06:02:50.251Z,38.60
2023-03-21T06:05:19.646Z,37.67
2023-03-21T06:07:47.834Z,36.90
2023-03-21T06:10:15.585Z,32.92
2023-03-21T06:12:43.568Z,33.72
2023-03-21T06:15:13.267Z,42.28
2023-03-21T06:17:41.083Z,37.78
2023-03-21T06:20:10.596Z,38.72
2023-03-21T06:22:39.789Z,39.40
2023-03-21T06:25:10.130Z,36.17
2023-03-21T06:27:38.309Z,34.17
2023-03-21T06:30:07.227Z,40.00
2023-03-21T06:32:34.985Z,38.67
2023-03-21T06:35:03.108Z,35.55
2023-03-21T06:37:30.884Z,40.83
2023-03-21T06:39:59.984Z,43.72
2023-03-21T06:42:27.686Z,42.13
2023-03-21T06:44:55.674Z,30.20
2023-03-21T06:47:23.552Z,35.60
2023-03-21T06:49:51.574Z,38.95
2023-03-21T06:52:19.280Z,37.93
2023-03-21T06:54:47.280Z,32.72
2023-03-21T06:57:18.051Z,38.65
2023-03-21T06:59:46.302Z,36.60
2023-03-21T07:02:14.185Z,36.78
2023-03-21T07:04:42.381Z,36.72
2023-03-21T07:07:10.387Z,36.38
2023-03-21T07:09:38.121Z,35.35
2023-03-21T07:12:05.936Z,35.40
2023-03-21T07:14:35.115Z,36.35
2023-03-21T07:17:02.802Z,30.65
2023-03-21T07:19:52.259Z,34.40
2023-03-21T07:22:21.899Z,46.23
2023-03-21T07:25:02.456Z,35.92
2023-03-21T07:27:32.574Z,37.13
2023-03-21T07:30:01.833Z,32.92
2023-03-21T07:32:30.102Z,29.02
2023-03-21T07:34:59.625Z,31.07
2023-03-21T07:37:29.146Z,29.13
2023-03-21T07:39:56.886Z,27.73
2023-03-21T07:42:24.560Z,30.02
2023-03-21T07:44:54.947Z,26.08
2023-03-21T07:47:24.065Z,30.90
2023-03-21T07:49:51.877Z,28.58
2023-03-21T07:52:19.719Z,28.95
2023-03-21T07:54:47.464Z,24.37
2023-03-21T07:57:15.254Z,20.30
2023-03-21T07:59:42.953Z,21.13
2023-03-21T08:02:11.459Z,9.55
2023-03-21T08:04:40.726Z,13.40
2023-03-21T08:07:08.537Z,11.82
2023-03-21T08:09:36.977Z,16.42
2023-03-21T08:12:05.240Z,17.95
2023-03-21T08:14:33.252Z,18.67
2023-03-21T08:17:01.948Z,11.48
2023-03-21T08:19:29.681Z,9.83
2023-03-21T08:21:59.835Z,9.75
2023-03-21T08:24:28.200Z,12.50
2023-03-21T08:26:56.155Z,21.08
2023-03-21T08:29:25.143Z,8.85
2023-03-21T08:31:52.892Z,14.52
2023-03-21T08:34:23.093Z,17.65
2023-03-21T08:36:50.967Z,13.95
2023-03-21T08:39:21.885Z,11.13
2023-03-21T08:41:49.671Z,9.13
2023-03-21T08:44:18.065Z,13.85
2023-03-21T08:46:45.887Z,10.63
2023-03-21T08:49:13.588Z,14.07
2023-03-21T08:51:41.385Z,15.82
2023-03-21T08:54:09.127Z,7.88
2023-03-21T08:56:38.200Z,13.10
2023-03-21T08:59:05.863Z,21.02
2023-03-21T09:01:33.695Z,8.80
2023-03-21T09:04:01.371Z,12.77
2023-03-21T09:06:30.049Z,6.15
2023-03-21T09:08:57.980Z,11.00
2023-03-21T09:11:26.075Z,8.75
2023-03-21T09:13:55.155Z,8.23
2023-03-21T09:16:22.891Z,14.82
2023-03-21T09:18:55.633Z,7.70
2023-03-21T09:21:25.042Z,5.53
2023-03-21T09:23:56.475Z,10.10
2023-03-21T09:26:25.719Z,8.23
2023-03-21T09:29:06.008Z,7.40
2023-03-21T09:31:54.611Z,17.33
2023-03-21T09:34:22.346Z,11.23
2023-03-21T09:36:51.813Z,6.78
2023-03-21T09:39:19.551Z,8.30
2023-03-21T09:41:57.146Z,10.98
2023-03-21T09:44:41.910Z,11.50
2023-03-21T09:47:29.421Z,10.20
2023-03-21T09:50:13.601Z,12.13
2023-03-21T09:52:47.765Z,8.65
2023-03-21T09:55:22.366Z,15.13
2023-03-21T09:57:53.109Z,11.80
2023-03-21T10:00:27.479Z,6.10
2023-03-21T10:03:06.867Z,11.63
2023-03-21T10:05:35.824Z,15.27
2023-03-21T10:08:07.454Z,10.35
2023-03-21T10:10:38.664Z,16.25
2023-03-21T10:13:08.604Z,6.87
2023-03-21T10:15:38.341Z,10.30
2023-03-21T10:18:09.768Z,13.02
2023-03-21T10:20:39.045Z,11.85
2023-03-21T10:23:08.831Z,8.82
2023-03-21T10:25:38.419Z,5.65
2023-03-21T10:28:08.303Z,15.23
2023-03-21T10:30:40.549Z,14.88
2023-03-21T10:33:15.138Z,8.20
2023-03-21T10:35:45.584Z,8.52
2023-03-21T10:38:17.043Z,9.10
2023-03-21T10:40:46.580Z,10.10
2023-03-21T10:43:20.589Z,8.52
2023-03-21T10:45:50.269Z,13.45
2023-03-21T10:48:21.703Z,7.82
2023-03-21T10:50:51.158Z,9.43
2023-03-21T10:53:22.707Z,11.93
2023-03-21T10:55:53.274Z,9.45
2023-03-21T10:58:27.362Z,10.30
2023-03-21T11:00:59.248Z,17.13
2023-03-21T11:03:32.403Z,7.20
2023-03-21T11:06:08.851Z,13.73
2023-03-21T11:08:41.010Z,8.18
2023-03-21T11:11:14.700Z,8.00
2023-03-21T11:13:59.306Z,4.70
2023-03-21T11:16:35.356Z,8.88
2023-03-21T11:19:04.764Z,9.52
2023-03-21T11:21:37.502Z,9.25
2023-03-21T11:24:07.643Z,6.57
2023-03-21T11:26:37.879Z,18.35
2023-03-21T11:29:22.253Z,6.90
2023-03-21T11:31:52.269Z,8.30
2023-03-21T11:34:28.911Z,8.05
2023-03-21T11:37:01.329Z,8.23
2023-03-21T11:39:34.721Z,13.90
2023-03-21T11:42:02.459Z,6.23
2023-03-21T11:44:33.070Z,14.35
2023-03-21T11:47:02.439Z,9.75
2023-03-21T11:49:33.030Z,18.33
2023-03-21T11:52:18.525Z,9.30
2023-03-21T11:55:04.850Z,8.68
2023-03-21T11:57:38.776Z,8.98
2023-03-21T12:00:17.751Z,9.90
2023-03-21T12:05:54.812Z,14.35
2023-03-21T12:08:32.724Z,10.98
2023-03-21T12:11:06.267Z,9.50
2023-03-21T12:13:47.294Z,13.23
2023-03-21T12:16:29.948Z,12.63
2023-03-21T12:19:04.833Z,19.35
2023-03-21T12:21:38.212Z,21.25
2023-03-21T12:24:08.872Z,20.98
2023-03-21T12:26:41.669Z,20.37
2023-03-21T12:29:24.356Z,22.50
2023-03-21T12:32:02.491Z,18.43
2023-03-21T12:34:44.858Z,18.15
2023-03-21T12:37:19.787Z,17.40
2023-03-21T12:39:49.253Z,15.27
2023-03-21T12:42:52.090Z,15.57
2023-03-21T12:45:22.256Z,18.48
2023-03-21T12:47:53.129Z,13.93
2023-03-21T12:50:23.555Z,12.77
2023-03-21T12:52:55.739Z,15.63
2023-03-21T12:55:24.970Z,13.80
2023-03-21T12:57:58.029Z,13.57
2023-03-21T13:00:28.916Z,12.60
2023-03-21T13:02:59.590Z,13.40
2023-03-21T13:05:31.738Z,18.88
2023-03-21T13:08:08.660Z,12.57
2023-03-21T13:10:37.271Z,11.90
2023-03-21T13:13:14.437Z,13.52
2023-03-21T13:15:56.749Z,13.55
2023-03-21T13:18:32.523Z,9.02
2023-03-21T13:21:03.748Z,10.97
2023-03-21T13:24:00.881Z,11.47
2023-03-21T13:26:40.085Z,12.40
2023-03-21T13:29:15.602Z,12.70
2023-03-21T13:31:51.991Z,12.53
2023-03-21T13:34:22.537Z,12.85
2023-03-21T13:36:52.153Z,13.68
2023-03-21T13:39:26.675Z,15.02
2023-03-21T13:41:54.821Z,12.03
2023-03-21T13:44:27.139Z,15.27
2023-03-21T13:46:57.361Z,12.65
2023-03-21T13:49:31.056Z,11.02
2023-03-21T13:52:00.628Z,10.70
2023-03-21T13:54:51.016Z,11.80
2023-03-21T13:57:24.308Z,14.40
2023-03-21T14:00:23.606Z,10.50
2023-03-21T14:02:55.316Z,10.57
2023-03-21T14:05:24.080Z,10.15
2023-03-21T14:07:59.433Z,11.38
2023-03-21T14:10:35.918Z,6.63
2023-03-21T14:13:04.707Z,11.90
2023-03-21T14:15:41.051Z,10.40
2023-03-21T14:18:28.050Z,12.65
2023-03-21T14:21:05.066Z,9.23
2023-03-21T14:23:57.211Z,9.83
2023-03-21T14:26:28.024Z,9.43
2023-03-21T14:28:55.802Z,10.48
2023-03-21T14:31:23.855Z,11.75
2023-03-21T14:33:54.228Z,6.97
2023-03-21T14:36:25.681Z,8.40
2023-03-21T14:39:00.660Z,7.35
2023-03-21T14:41:31.127Z,9.80
2023-03-21T14:44:13.418Z,7.25
2023-03-21T14:46:41.875Z,12.82
2023-03-21T14:49:14.274Z,9.45
2023-03-21T14:51:42.665Z,4.90
2023-03-21T14:54:14.307Z,6.93
2023-03-21T14:59:21.280Z,6.95
2023-03-21T15:01:50.963Z,4.55
2023-03-21T15:04:19.070Z,11.85
2023-03-21T15:06:51.688Z,8.27
2023-03-21T15:09:23.399Z,5.22
2023-03-21T15:11:52.698Z,6.40
2023-03-21T15:14:26.223Z,8.10
2023-03-21T15:16:55.023Z,8.10
2023-03-21T15:19:28.714Z,6.95
2023-03-21T15:21:59.341Z,8.30
2023-03-21T15:24:28.965Z,10.45
2023-03-21T15:27:00.826Z,5.32
2023-03-21T15:29:30.337Z,4.90
2023-03-21T15:31:59.216Z,9.75
2023-03-21T15:34:29.003Z,6.82
2023-03-21T15:36:59.059Z,9.05
2023-03-21T15:39:29.450Z,6.07
2023-03-21T15:41:59.575Z,12.45
2023-03-21T15:44:30.011Z,8.60
2023-03-21T15:46:58.442Z,6.65
2023-03-21T15:52:14.475Z,9.73
2023-03-21T15:54:44.689Z,5.65
2023-03-21T15:57:22.688Z,7.35
2023-03-21T15:59:55.961Z,7.80
2023-03-21T16:02:26.288Z,6.00
2023-03-21T16:04:58.729Z,6.93
2023-03-21T16:07:27.097Z,6.93
2023-03-21T16:10:00.166Z,5.30
2023-03-21T16:12:28.244Z,7.47
2023-03-21T16:14:57.365Z,4.07
2023-03-21T16:17:29.154Z,7.72
2023-03-21T16:19:57.134Z,6.53
2023-03-21T16:22:24.854Z,10.82
2023-03-21T16:24:52.514Z,6.50
2023-03-21T16:27:20.752Z,4.20
2023-03-21T16:29:48.498Z,7.78
2023-03-21T16:32:20.568Z,5.13
2023-03-21T16:34:48.774Z,8.90
2023-03-21T16:37:16.870Z,7.40
2023-03-21T16:40:12.690Z,7.05
2023-03-21T16:42:40.403Z,6.70
2023-03-21T16:45:09.129Z,9.75
2023-03-21T16:47:38.224Z,7.45
2023-03-21T16:50:21.561Z,10.70
2023-03-21T16:52:49.422Z,10.30
2023-03-21T16:55:17.243Z,7.85
2023-03-21T16:57:46.291Z,5.15
2023-03-21T17:00:16.755Z,9.07
2023-03-21T17:02:46.096Z,8.50
2023-03-21T17:05:14.061Z,6.68
2023-03-21T17:07:44.150Z,7.40
2023-03-21T17:10:17.619Z,10.77
2023-03-21T17:12:45.673Z,6.95
2023-03-21T17:15:14.613Z,8.50
2023-03-21T17:17:42.821Z,6.43
2023-03-21T17:20:21.443Z,7.33
2023-03-21T17:22:49.821Z,5.75
2023-03-21T17:25:18.878Z,9.25
2023-03-21T17:27:47.949Z,6.90
2023-03-21T17:30:22.811Z,8.43
2023-03-21T17:32:51.633Z,7.93
2023-03-21T17:35:21.524Z,9.70
2023-03-21T17:37:51.132Z,7.47
2023-03-21T17:40:22.340Z,7.45
2023-03-21T17:42:50.851Z,7.05
2023-03-21T17:45:19.480Z,8.10
2023-03-21T17:47:47.433Z,6.80
2023-03-21T17:50:17.701Z,10.00
2023-03-21T17:52:49.558Z,7.88
2023-03-21T17:55:21.122Z,10.57
2023-03-21T17:57:49.591Z,8.13
2023-03-21T18:00:21.130Z,7.18
2023-03-21T18:02:48.955Z,9.50
2023-03-21T18:05:17.231Z,9.20
2023-03-21T18:08:08.896Z,10.10
2023-03-21T18:10:34.496Z,9.40
2023-03-21T18:13:02.263Z,8.32
2023-03-21T18:15:30.826Z,6.17
2023-03-21T18:17:58.971Z,7.43
2023-03-21T18:20:49.942Z,11.88
2023-03-21T18:23:18.782Z,9.90
2023-03-21T18:25:55.593Z,8.85
2023-03-21T18:28:23.386Z,9.50
2023-03-21T18:33:40.895Z,7.30
2023-03-21T18:36:09.543Z,10.13
2023-03-21T18:38:39.073Z,8.87
2023-03-21T18:41:08.447Z,7.75
2023-03-21T18:46:24.696Z,13.38
2023-03-21T18:48:52.999Z,10.50
2023-03-21T18:51:21.848Z,9.30
2023-03-21T18:53:51.470Z,8.48
2023-03-21T18:57:06.041Z,11.77
2023-03-21T18:59:07.505Z,10.52
2023-03-21T19:01:35.865Z,10.32
2023-03-21T19:04:20.806Z,10.20
2023-03-21T19:06:51.297Z,10.43
2023-03-21T19:09:29.089Z,10.23
2023-03-21T19:11:59.253Z,14.32
2023-03-21T19:14:26.996Z,10.40
2023-03-21T19:17:47.168Z,11.80
2023-03-21T19:19:44.818Z,13.43
2023-03-21T19:22:13.122Z,10.63
2023-03-21T19:24:42.990Z,10.93
2023-03-21T19:27:11.411Z,11.77
2023-03-21T19:29:40.578Z,9.32
2023-03-21T19:32:08.897Z,12.63
2023-03-21T19:34:36.794Z,8.77
2023-03-21T19:37:05.227Z,12.47
2023-03-21T19:39:33.496Z,12.93
2023-03-21T19:42:15.916Z,13.00
2023-03-21T19:44:45.158Z,10.98
2023-03-21T19:47:13.198Z,10.45
2023-03-21T19:52:29.243Z,12.38
2023-03-21T19:54:56.952Z,11.63
2023-03-21T19:57:26.316Z,12.73
2023-03-21T19:59:54.925Z,11.98
2023-03-21T20:02:35.535Z,12.70
2023-03-21T20:05:04.076Z,13.47
2023-03-21T20:07:32.925Z,14.20
2023-03-21T20:10:00.799Z,16.45
2023-03-21T20:12:30.639Z,15.13
2023-03-21T20:15:10.414Z,12.75
2023-03-21T20:18:04.008Z,12.43
2023-03-21T20:20:31.926Z,17.20
2023-03-21T20:23:08.484Z,13.13
2023-03-21T20:25:40.922Z,14.88
2023-03-21T20:28:16.500Z,12.48
2023-03-21T20:30:49.342Z,12.73
2023-03-21T20:33:17.777Z,17.73
2023-03-21T20:36:32.892Z,15.48
2023-03-21T20:38:34.234Z,13.23
2023-03-21T20:41:03.131Z,17.77
2023-03-21T20:46:29.751Z,11.30
2023-03-21T20:48:58.364Z,11.73
2023-03-21T20:54:16.978Z,14.50
2023-03-21T20:57:08.036Z,11.97
2023-03-21T20:59:37.503Z,11.63
2023-03-21T21:02:05.350Z,13.60
2023-03-21T21:05:15.563Z,12.32
2023-03-21T21:07:22.447Z,14.43
2023-03-21T21:09:50.987Z,12.63
2023-03-21T21:12:19.771Z,12.20
2023-03-21T21:14:49.170Z,15.27
2023-03-21T21:20:16.276Z,15.32
2023-03-21T21:22:52.322Z,17.13
2023-03-21T21:25:26.150Z,12.43
2023-03-21T21:27:53.888Z,11.35
2023-03-21T21:30:23.159Z,15.53
2023-03-21T21:32:51.050Z,12.97
2023-03-21T21:35:20.546Z,13.13
2023-03-21T21:37:48.461Z,14.68
2023-03-21T21:40:20.221Z,15.50
2023-03-21T21:43:03.511Z,11.45
2023-03-21T21:45:32.734Z,13.85
2023-03-21T21:48:00.706Z,12.25
2023-03-21T21:50:28.440Z,13.00
2023-03-21T21:52:56.208Z,14.20
2023-03-21T21:55:23.913Z,12.43
2023-03-21T21:57:53.109Z,12.82
2023-03-21T22:00:21.487Z,13.02
2023-03-21T22:02:50.614Z,11.55
2023-03-21T22:05:19.067Z,11.13
2023-03-21T22:07:47.074Z,12.98
2023-03-21T22:10:15.434Z,13.82
2023-03-21T22:12:43.119Z,11.68
2023-03-21T22:15:12.096Z,10.82
2023-03-21T22:17:40.569Z,11.25
2023-03-21T22:20:12.094Z,10.38
2023-03-21T22:22:40.111Z,14.52
2023-03-21T22:25:10.545Z,15.18
2023-03-21T22:27:38.494Z,14.73
2023-03-21T22:30:07.967Z,12.95
2023-03-21T22:32:36.817Z,13.90
2023-03-21T22:35:05.242Z,12.93
2023-03-21T22:37:35.837Z,15.27
2023-03-21T22:40:05.592Z,12.97
2023-03-21T22:42:33.324Z,18.10
2023-03-21T22:45:01.548Z,11.60
2023-03-21T22:47:29.625Z,13.53
2023-03-21T22:49:57.346Z,17.70
2023-03-21T22:52:46.961Z,9.95
2023-03-21T22:55:16.109Z,13.60
2023-03-21T22:57:43.871Z,11.13
2023-03-21T23:00:14.402Z,10.48
2023-03-21T23:02:42.349Z,9.75
2023-03-21T23:05:10.672Z,12.13
2023-03-21T23:07:38.456Z,12.30
2023-03-21T23:10:07.163Z,11.07
2023-03-21T23:12:37.525Z,12.52
2023-03-21T23:15:06.101Z,12.00
2023-03-21T23:17:35.535Z,11.20
2023-03-21T23:20:06.031Z,10.47
2023-03-21T23:22:34.167Z,8.93
2023-03-21T23:25:02.482Z,11.27
2023-03-21T23:27:30.267Z,11.25
2023-03-21T23:29:59.339Z,13.23
2023-03-21T23:32:27.191Z,11.05
2023-03-21T23:34:55.524Z,12.48
2023-03-21T23:37:24.874Z,10.45
2023-03-21T23:39:55.239Z,12.32
2023-03-21T23:42:23.082Z,11.10
2023-03-21T23:44:50.871Z,12.77
2023-03-21T23:47:20.769Z,10.25
2023-03-21T23:49:56.092Z,10.02
2023-03-21T23:52:24.026Z,13.88
2023-03-21T23:54:51.959Z,12.23
2023-03-21T23:57:19.855Z,11.88
2023-03-21T23:59:47.720Z,9.70
